createdAt,value
2018-06-10T00:01:37.262Z,49.70
2018-06-10T00:06:30.187Z,49.90
2018-06-10T00:11:23.153Z,49.52
2018-06-10T00:16:16.081Z,49.95
2018-06-10T00:21:09.310Z,49.76
2018-06-10T00:26:02.362Z,50.64
2018-06-10T00:30:55.764Z,50.54
2018-06-10T00:35:49.016Z,51.42
2018-06-10T00:40:41.920Z,51.79
2018-06-10T00:45:34.893Z,51.82
2018-06-10T00:50:27.831Z,51.46
2018-06-10T00:55:20.727Z,52.51
2018-06-10T01:00:13.667Z,51.66
2018-06-10T01:05:06.504Z,51.73
2018-06-10T01:09:59.369Z,52.81
2018-06-10T01:14:52.262Z,52.62
2018-06-10T01:19:45.206Z,53.00
2018-06-10T01:24:38.093Z,53.54
2018-06-10T01:29:30.973Z,53.57
2018-06-10T01:34:23.898Z,54.06
2018-06-10T01:39:16.790Z,53.29
2018-06-10T01:44:09.715Z,53.17
2018-06-10T01:49:02.616Z,54.20
2018-06-10T01:53:55.526Z,54.17
2018-06-10T01:58:48.381Z,54.08
2018-06-10T02:03:41.341Z,54.41
2018-06-10T02:08:34.303Z,54.61
2018-06-10T02:13:27.203Z,53.99
2018-06-10T02:18:20.086Z,54.38
2018-06-10T02:23:12.913Z,55.22
2018-06-10T02:28:05.822Z,54.98
2018-06-10T02:32:58.747Z,56.12
2018-06-10T02:37:51.758Z,56.20
2018-06-10T02:42:44.695Z,56.08
2018-06-10T02:47:37.541Z,56.65
2018-06-10T02:52:30.438Z,56.70
2018-06-10T02:57:23.266Z,55.84
2018-06-10T03:02:16.163Z,57.00
2018-06-10T03:07:09.091Z,56.92
2018-06-10T03:12:02.043Z,57.33
2018-06-10T03:16:54.907Z,57.35
2018-06-10T03:21:47.724Z,57.51
2018-06-10T03:26:40.726Z,57.76
2018-06-10T03:31:33.495Z,57.95
2018-06-10T03:36:26.297Z,57.47
2018-06-10T03:41:19.179Z,57.76
2018-06-10T03:46:12.067Z,57.71
2018-06-10T03:51:05.012Z,58.67
2018-06-10T03:55:57.974Z,57.75
2018-06-10T04:00:50.838Z,58.65
2018-06-10T04:05:43.687Z,58.24
2018-06-10T04:10:36.562Z,58.55
2018-06-10T04:15:29.560Z,58.18
2018-06-10T04:20:22.491Z,58.77
2018-06-10T04:25:15.414Z,59.54
2018-06-10T04:30:08.407Z,58.67
2018-06-10T04:35:01.331Z,58.95
2018-06-10T04:39:54.228Z,59.86
2018-06-10T04:44:47.104Z,59.96
2018-06-10T04:49:39.982Z,59.88
2018-06-10T04:54:32.950Z,58.83
2018-06-10T04:59:25.823Z,59.50
2018-06-10T05:04:18.773Z,58.82
2018-06-10T05:09:11.703Z,59.29
2018-06-10T05:14:04.623Z,59.13
2018-06-10T05:18:57.493Z,58.93
2018-06-10T05:23:50.349Z,58.25
2018-06-10T05:28:43.255Z,58.43
2018-06-10T05:33:36.265Z,58.60
2018-06-10T05:38:29.132Z,58.25
2018-06-10T05:43:21.932Z,57.39
2018-06-10T05:48:14.925Z,57.19
2018-06-10T05:53:07.852Z,57.76
2018-06-10T05:58:01.165Z,56.60
2018-06-10T06:02:54.054Z,56.53
2018-06-10T06:07:46.942Z,57.36
2018-06-10T06:12:39.913Z,56.46
2018-06-10T06:17:32.752Z,56.28
2018-06-10T06:22:25.604Z,56.81
2018-06-10T06:27:18.618Z,57.39
2018-06-10T06:32:11.561Z,57.14
2018-06-10T06:37:04.485Z,55.84
2018-06-10T06:41:57.357Z,55.94
2018-06-10T06:46:50.266Z,54.54
2018-06-10T06:51:43.117Z,54.94
2018-06-10T06:56:36.183Z,53.99
2018-06-10T07:01:29.133Z,53.71
2018-06-10T07:06:21.988Z,54.00
2018-06-10T07:11:14.807Z,53.32
2018-06-10T07:16:07.722Z,53.84
2018-06-10T07:21:00.672Z,52.40
2018-06-10T07:25:53.515Z,52.04
2018-06-10T07:30:46.454Z,49.80
2018-06-10T07:35:39.498Z,47.30
2018-06-10T07:40:32.496Z,45.08
2018-06-10T07:45:25.339Z,42.91
2018-06-10T07:50:18.272Z,42.45
2018-06-10T07:55:11.146Z,40.45
2018-06-10T08:00:04.309Z,40.58
2018-06-10T08:04:57.208Z,40.07
2018-06-10T08:09:50.257Z,40.47
2018-06-10T08:14:43.248Z,40.32
2018-06-10T08:19:36.117Z,41.30
2018-06-10T08:24:28.948Z,41.42
2018-06-10T08:29:21.909Z,42.87
2018-06-10T08:34:14.808Z,43.29
2018-06-10T08:39:08.283Z,44.45
2018-06-10T08:44:01.294Z,43.91
2018-06-10T08:48:54.213Z,44.25
2018-06-10T08:53:47.111Z,43.77
2018-06-10T08:58:40.009Z,45.22
2018-06-10T09:03:32.909Z,43.71
2018-06-10T09:08:25.999Z,42.74
2018-06-10T09:13:18.918Z,42.31
2018-06-10T09:18:11.871Z,41.58
2018-06-10T09:23:04.996Z,42.11
2018-06-10T09:27:57.845Z,41.86
2018-06-10T09:32:50.778Z,42.59
2018-06-10T09:37:43.705Z,40.44
2018-06-10T09:42:36.825Z,39.11
2018-06-10T09:47:29.811Z,40.25
2018-06-10T09:52:22.776Z,38.66
2018-06-10T09:57:15.729Z,39.54
2018-06-10T10:02:08.663Z,38.89
2018-06-10T10:07:01.529Z,38.88
2018-06-10T10:11:54.593Z,39.31
2018-06-10T10:16:47.517Z,39.32
2018-06-10T10:21:40.469Z,39.45
2018-06-10T10:26:33.482Z,39.04
2018-06-10T10:31:26.366Z,40.25
2018-06-10T10:36:19.211Z,40.25
2018-06-10T10:41:12.095Z,38.90
2018-06-10T10:46:04.957Z,39.55
2018-06-10T10:50:57.948Z,39.29
2018-06-10T10:55:50.893Z,39.84
2018-06-10T11:00:43.701Z,38.92
2018-06-10T11:05:36.835Z,38.53
2018-06-10T11:10:29.774Z,39.06
2018-06-10T11:15:22.739Z,38.59
2018-06-10T11:20:15.587Z,38.95
2018-06-10T11:25:08.480Z,38.15
2018-06-10T11:30:01.304Z,37.41
2018-06-10T11:34:54.221Z,36.98
2018-06-10T11:39:47.331Z,37.50
2018-06-10T11:44:40.233Z,36.25
2018-06-10T11:49:33.090Z,36.58
2018-06-10T11:54:25.902Z,37.01
2018-06-10T11:59:18.857Z,34.66
2018-06-10T12:04:11.789Z,33.95
2018-06-10T12:09:07.134Z,33.66
2018-06-10T12:14:00.055Z,34.12
2018-06-10T12:18:52.997Z,37.16
2018-06-10T12:23:45.959Z,44.30
2018-06-10T12:28:38.946Z,47.78
2018-06-10T12:33:31.830Z,50.55
2018-06-10T12:38:24.836Z,51.22
2018-06-10T12:43:17.754Z,51.38
2018-06-10T12:48:10.692Z,52.82
2018-06-10T12:53:04.657Z,51.83
2018-06-10T12:57:57.604Z,53.02
2018-06-10T13:02:50.618Z,53.04
2018-06-10T13:07:43.509Z,54.85
2018-06-10T13:12:36.554Z,54.77
2018-06-10T13:17:29.413Z,55.73
2018-06-10T13:22:22.305Z,54.90
2018-06-10T13:27:15.168Z,55.40
2018-06-10T13:32:08.147Z,54.00
2018-06-10T13:37:01.020Z,53.71
2018-06-10T13:41:53.905Z,53.65
2018-06-10T13:46:46.747Z,53.87
2018-06-10T13:51:39.744Z,53.62
2018-06-10T13:56:32.664Z,53.95
2018-06-10T14:01:25.547Z,53.10
2018-06-10T14:06:18.528Z,53.28
2018-06-10T14:11:11.422Z,53.37
2018-06-10T14:16:04.398Z,52.81
2018-06-10T14:20:57.397Z,52.04
2018-06-10T14:25:50.289Z,51.27
2018-06-10T14:30:43.177Z,51.23
2018-06-10T14:35:36.198Z,51.25
2018-06-10T14:40:29.172Z,50.51
2018-06-10T14:45:22.049Z,50.64
2018-06-10T14:50:14.931Z,49.89
2018-06-10T14:55:07.978Z,50.59
2018-06-10T15:00:01.040Z,51.41
2018-06-10T15:04:54.005Z,50.72
2018-06-10T15:09:46.930Z,49.67
2018-06-10T15:14:39.781Z,49.68
2018-06-10T15:19:32.730Z,50.86
2018-06-10T15:24:25.743Z,53.44
2018-06-10T15:29:18.713Z,55.45
2018-06-10T15:34:11.652Z,56.74
2018-06-10T15:39:07.276Z,56.68
2018-06-10T15:44:00.286Z,58.36
2018-06-10T15:48:53.221Z,59.55
2018-06-10T15:53:46.309Z,60.75
2018-06-10T15:58:39.309Z,61.56
2018-06-10T16:03:32.321Z,62.40
2018-06-10T16:08:25.287Z,62.87
2018-06-10T16:13:18.151Z,63.87
2018-06-10T16:18:11.169Z,64.44
2018-06-10T16:23:04.118Z,64.12
2018-06-10T16:27:57.085Z,63.82
2018-06-10T16:32:49.989Z,63.76
2018-06-10T16:37:42.924Z,63.44
2018-06-10T16:42:35.861Z,63.70
2018-06-10T16:47:28.847Z,64.70
2018-06-10T16:52:21.768Z,65.21
2018-06-10T16:57:14.577Z,64.85
2018-06-10T17:02:07.515Z,64.34
2018-06-10T17:07:00.383Z,64.08
2018-06-10T17:11:53.526Z,65.24
2018-06-10T17:16:46.451Z,65.52
2018-06-10T17:21:39.421Z,65.24
2018-06-10T17:26:32.347Z,63.82
2018-06-10T17:31:25.321Z,64.34
2018-06-10T17:36:18.120Z,64.04
2018-06-10T17:41:11.006Z,64.16
2018-06-10T17:46:04.025Z,64.25
2018-06-10T17:50:57.041Z,64.17
2018-06-10T17:55:50.132Z,65.02
2018-06-10T18:00:43.198Z,64.56
2018-06-10T18:05:36.095Z,64.55
2018-06-10T18:10:29.121Z,64.69
2018-06-10T18:15:22.321Z,63.63
2018-06-10T18:20:15.440Z,63.85
2018-06-10T18:25:08.618Z,63.89
2018-06-10T18:30:01.875Z,63.50
2018-06-10T18:34:54.850Z,63.87
2018-06-10T18:39:47.915Z,64.14
2018-06-10T18:44:41.081Z,65.53
2018-06-10T18:49:34.197Z,65.22
2018-06-10T18:54:27.398Z,65.29
2018-06-10T18:59:20.692Z,65.55
2018-06-10T19:04:13.869Z,65.50
2018-06-10T19:09:08.805Z,65.38
2018-06-10T19:14:01.965Z,65.06
2018-06-10T19:18:55.105Z,65.48
2018-06-10T19:23:48.108Z,64.57
2018-06-10T19:28:41.126Z,65.57
2018-06-10T19:33:36.261Z,65.58
2018-06-10T19:38:29.293Z,65.95
2018-06-10T19:43:22.323Z,66.02
2018-06-10T19:48:15.345Z,66.26
2018-06-10T19:53:08.422Z,65.73
2018-06-10T19:58:01.466Z,66.51
2018-06-10T20:02:54.469Z,66.64
2018-06-10T20:07:47.574Z,66.73
2018-06-10T20:12:40.621Z,67.19
2018-06-10T20:17:33.716Z,67.30
2018-06-10T20:22:26.807Z,67.60
2018-06-10T20:27:19.806Z,67.63
2018-06-10T20:32:12.822Z,66.86
2018-06-10T20:37:06.051Z,67.92
2018-06-10T20:41:59.178Z,67.50
2018-06-10T20:46:52.207Z,67.16
2018-06-10T20:51:45.158Z,67.43
2018-06-10T20:56:38.127Z,67.23
2018-06-10T21:01:31.016Z,67.93
2018-06-10T21:06:23.963Z,67.42
2018-06-10T21:11:16.921Z,68.05
2018-06-10T21:16:09.859Z,68.11
2018-06-10T21:21:02.882Z,68.35
2018-06-10T21:25:55.906Z,67.87
2018-06-10T21:30:48.876Z,68.67
2018-06-10T21:35:41.789Z,68.47
2018-06-10T21:40:34.688Z,68.07
2018-06-10T21:45:27.621Z,68.44
2018-06-10T21:50:20.465Z,68.34
2018-06-10T21:55:13.337Z,67.79
2018-06-10T22:00:15.005Z,67.99
2018-06-10T22:05:07.937Z,67.80
2018-06-10T22:10:00.888Z,67.59
2018-06-10T22:14:53.802Z,67.52
2018-06-10T22:19:46.754Z,67.24
2018-06-10T22:24:39.928Z,67.19
2018-06-10T22:29:32.766Z,67.05
2018-06-10T22:34:25.659Z,67.56
2018-06-10T22:39:18.505Z,67.49
2018-06-10T22:44:11.280Z,67.24
2018-06-10T22:49:04.196Z,67.00
2018-06-10T22:54:14.454Z,66.47
2018-06-10T22:59:07.417Z,66.94
2018-06-10T23:04:00.363Z,67.71
2018-06-10T23:08:53.206Z,67.83
2018-06-10T23:13:46.090Z,68.03
2018-06-10T23:18:38.933Z,67.89
2018-06-10T23:23:31.784Z,67.75
2018-06-10T23:28:24.698Z,68.72
2018-06-10T23:33:17.554Z,68.44
2018-06-10T23:38:10.444Z,68.83
2018-06-10T23:43:03.338Z,68.67
2018-06-10T23:47:56.263Z,69.29
2018-06-10T23:52:49.177Z,69.29
2018-06-10T23:57:42.114Z,68.42
